Flight Track Log - Related Links

Times and Time Zones

All times are in EDT time to prevent confusion due to time zone crossing. See the ASH3770 flight status page for this flight to view local times or setup timezone preferences in your user account.

Time Position Orientation Groundspeed Altitude Reporting Facility
EDT Latitude Longitude Course Direction KTS MPH feet Rate Location/Type
06:38PM 40.5711 -80.2031 286° West 230 265 8,000  Level Cleveland Center
06:39PM 40.5766 -80.6996 285° West  Level FlightAware Approximate
06:39PM 40.5839 -80.2825 282° West 257 296 10,600  Level Cleveland Center
06:40PM 40.6074 -80.8174 291° West  Level FlightAware Approximate
06:40PM 40.5964 -80.3644 281° West 257 296 13,000  Level Cleveland Center
06:41PM 40.6342 -80.9370 288° West  Level FlightAware Approximate
06:41PM 40.6111 -80.4792 280° West 264 304 14,700  Level Cleveland Center
06:42PM 40.6595 -81.0571 282° West  Level FlightAware Approximate
06:42PM 40.6258 -80.5914 280° West 300 345 16,500  Level Cleveland Center
06:43PM 40.6832 -81.1780 286° West  Level FlightAware Approximate
06:43PM 40.6383 -80.6844 280° West 324 373 17,600  Level Cleveland Center
06:44PM 40.7085 -81.2984 286° West  Level FlightAware Approximate
06:44PM 40.6589 -80.8131 282° West 330 380 20,200  Level Cleveland Center
06:45PM 40.6753 -80.9364 280° West 335 386 21,900 1,650 Climbing Cleveland Center
06:46PM 40.6914 -81.0761 279° West 343 395 23,500 1,400 Climbing Cleveland Center
06:47PM 40.7097 -81.2050 281° West 356 410 24,700 1,100 Climbing Cleveland Center
06:48PM 40.7256 -81.3228 280° West 361 415 25,700 1,150 Climbing Cleveland Center
06:49PM 40.7433 -81.4547 280° West 369 425 27,000 1,200 Climbing Cleveland Center
06:50PM 40.7672 -81.5892 283° West 374 430 28,100 1,200 Climbing Cleveland Center
06:51PM 40.7931 -81.7242 284° West 374 430 29,400 1,550 Climbing Cleveland Center
06:52PM 40.8189 -81.8533 285° West 368 423 31,200 1,300 Climbing Cleveland Center
06:53PM 40.8422 -81.9939 282° West 368 423 32,000 400 Climbing Cleveland Center
06:54PM 40.8675 -82.1289 284° West 368 423 32,000  Level Cleveland Center
06:55PM 40.8928 -82.2697 283° West 382 440 32,000 600 Level Cleveland Center
06:56PM 40.9178 -82.4078 284° West 389 448 33,200 1,000 Climbing Cleveland Center
06:57PM 40.9403 -82.5458 282° West 394 453 34,000 400 Climbing Cleveland Center
06:58PM 40.9650 -82.6867 283° West 389 448 34,000  Level Cleveland Center
06:59PM 40.9894 -82.8278 283° West 395 455 34,000  Level Cleveland Center
07:00PM 41.0119 -82.9553 283° West 395 455 34,000  Level Cleveland Center
07:01PM 41.0378 -83.1019 283° West 395 455 34,000  Level Cleveland Center
07:02PM 41.0639 -83.2436 284° West 395 455 34,000  Level Cleveland Center
07:03PM 41.0875 -83.3906 282° West 395 455 34,000  Level Cleveland Center
07:04PM 41.1106 -83.5486 281° West 400 460 34,000  Level Cleveland Center
07:05PM 41.1358 -83.6931 283° West 400 460 34,000  Level Cleveland Center
07:06PM 41.1589 -83.8378 282° West 400 460 34,000  Level Cleveland Center
07:08PM 41.2050 -84.1819 280° West 404 465 34,000  Level Chicago Center
07:10PM 41.2108 -84.3311 273° West 407 468 34,000  Level Chicago Center
07:11PM 41.2183 -84.4808 274° West 408 470 34,000  Level Chicago Center
07:12PM 41.2264 -84.6283 274° West 403 464 34,000  Level Chicago Center
07:13PM 41.2325 -84.7728 273° West 395 455 34,000  Level Chicago Center
07:14PM 41.2397 -84.9417 273° West 385 443 34,000  Level Chicago Center
07:15PM 41.2461 -85.0756 274° West 369 425 34,000  Level Chicago Center
07:16PM 41.2503 -85.2042 273° West 358 412 34,000  Level Chicago Center
07:17PM 41.2547 -85.3342 273° West 353 406 34,000  Level Chicago Center
07:18PM 41.2608 -85.4686 274° West 357 411 34,000 -768 Level Chicago Center
07:19PM 41.2672 -85.6014 274° West 358 412 32,400 -1,790 Descending Chicago Center
07:20PM 41.2711 -85.7297 272° West 345 397 30,300 -2,341 Descending Chicago Center
07:21PM 41.2767 -85.8794 273° West 337 388 27,600 -2,419 Descending Chicago Center
07:22PM 41.2819 -86.0039 273° West 337 388 25,300 -1,935 Descending Chicago Center
07:23PM 41.3142 -86.1350 288° West 374 430 23,600 -1,548 Descending Chicago Center
07:24PM 41.3472 -86.2678 288° West 379 436 22,100 -1,452 Descending Chicago Center
07:25PM 41.3769 -86.3917 288° West 353 406 20,600 -1,452 Descending Chicago Center
07:26PM 41.4067 -86.5150 288° West 350 403 19,100 -1,500 Descending Chicago Center
07:27PM 41.4364 -86.6383 288° West 349 402 17,500 -1,597 Descending Chicago Center
07:28PM 41.4686 -86.7681 288° West 340 391 15,800 -1,548 Descending Chicago Center
07:29PM 41.4964 -86.8842 288° West 334 384 14,300 -1,548 Descending Chicago Center
07:30PM 41.5286 -87.0225 287° West 329 379 12,600 -1,113 Descending Chicago Center
07:31PM 41.5556 -87.1325 288° West 317 365 12,000 -300 Descending Chicago Center
07:32PM 41.5833 -87.2500 288° West 318 366 12,000  Level Chicago TRACON
07:33PM 41.6333 -87.3333 309° West 313 360 12,000 -47 Level Chicago TRACON
07:34PM 41.7000 -87.4333 312° West 308 354 11,900 -450 Descending Chicago TRACON
07:35PM 41.7500 -87.5167 309° West 261 300 11,100 -1,200 Descending Chicago TRACON
07:36PM 41.7889 -87.5856 307° West 245 282 9,400 -1,444 Descending Chicago Center
07:37PM 41.8297 -87.6544 309° West 239 275 7,900 -1,200 Descending Chicago Center
07:38PM 41.8833 -87.7167 319° Northwest 270 311 7,100 -505 Descending Chicago TRACON
07:39PM 41.9500 -87.7167 360° North 289 333 7,000 -300 Descending Chicago TRACON
07:40PM 42.0333 -87.6833 17° North 226 260 6,500 -1,000 Descending Chicago TRACON
07:41PM 42.0833 -87.6667 14° North 222 255 4,900 -1,055 Descending Chicago TRACON
07:44PM 42.0967 -87.7922 278° West 180 207 3,000 -820 Descending Chicago Center

Login

Don't have an account? Register now (free) for customized features, flight alerts, and more!